Aniwa, Wisconsin
Current Conditions -  °F | °C
As of 10:55 AM on Monday 22 Dec 2014 (Local Time) from KAIG Reporting Station
Moderate Fog Moderate Fog  
Wind Chill: 22°   Ceiling: 300
Heat Index: 31°   Visibility: 0.5mi
Dew Point: 31°   Wind: 10mph
Humidity: 100%   Direction: 140°SE
Pressure: 29.81"   Gusts: NA
Location:  45.01°N, 89.21°W
Report Text: KAIG 221655Z AUTO 14009KT 1/2SM FZFG OVC003 M01/M01 A2981 RMK AO2 T10061006
Loading
Personal Weather Stations






























Interactive Weather Map New forecast layout! Learn more

10-Day Weather Forecast

Advertisements
Track Severe Weather on mobile